MBS International Airport Saginaw US
ICAO: KMBS
IATA: MBS
Category: Large
Scheduled Services: Yes

Elevation: 668 ft
TransAlt. 18000 ft.

Airport Communications:
SAGINAW APP/DEP:120.95
ATIS:118.6
CLNC DEL:121.85
CTAF:120.1
GND:121.7
LANSING RDO:122.2
SAGINAW TWR:120.1
UNICOM:122.95

KMBS Zoom In..

If you have problems with the map follow the link
https://www.worldairports.se/pages/airport.php?
ICAO=KMBS

Runways:

(A) RW 05 length 8002 ft width 150 ft
ILS 108.70 / hdg 50

(B) RW 14 length 6399 ft width 150 ft
---- / hdg 140

(C) RW 23 length 8002 ft width 150 ft
ILS 108.70 / hdg 230

(D) RW 32 length 6399 ft width 150 ft
---- / hdg 320

Location; KMBS
Day. 26 / Time. 23.53 Zulu
* Altimeter: 29.77
* Temperature: 02° c. 35.6°f.
* Wind from: 280° Speed 11 kn.
Dewpoint: -02° c.
Visibility: 10 Statute Miles.
Clouds: Scattered 2000 ft.
Clouds: Scattered 3200 ft.
Clouds: Overcast 5500 ft.

KMBS 262353Z 28011KT 10SM SCT020 SCT032 OVC055 02/M02 A2977 RMK AO2 SLP088 60000 T00171022 10028 20017 51010


Wind From 280°
Speed 11 kn.

 
 
jpsmedia worldairports.se 2020   terms of use